• Join FlightAware (Why Join?)
  • Login
  • US Flag 
03:09AM EDT


 

Airport Tracker/Info


-or-


 

Live Flight TrackerFlight Track Log ✈ VOODOO1 ✈ 01-Aug-2013 ✈ KELM - KYNG

Flight Track Log - Related Links

Times and Time Zones

All times are in EDT time to prevent confusion due to time zone crossing. See the VOODOO1 flight status page for this flight to view local times or setup timezone preferences in your user account.

Time Position Orientation Groundspeed Altitude Reporting Facility
EDT Latitude Longitude Course Direction KTS MPH feet Rate Location/Type
10:49AM 42.1447 -77.0875 264° West  Level FlightAware Approximate
10:50AM 42.1416 -77.1282 264° West  Level FlightAware Approximate
10:51AM 42.1385 -77.1689 264° West  Level FlightAware Approximate
10:52AM 42.1354 -77.2095 264° West  Level FlightAware Approximate
10:53AM 42.1323 -77.2502 264° West  Level FlightAware Approximate
10:53AM 42.1133 -77.3053 264° West 122 140 4,200  Level Cleveland Center
10:54AM 42.1291 -77.2909 264° West  Level FlightAware Approximate
10:54AM 42.1125 -77.3500 269° West 122 140 4,200  Level Cleveland Center
10:55AM 42.1259 -77.3316 264° West  Level FlightAware Approximate
10:55AM 42.1097 -77.3922 265° West 122 140 4,200  Level Cleveland Center
10:56AM 42.1228 -77.3723 264° West  Level FlightAware Approximate
10:56AM 42.1044 -77.4344 260° West 117 135 4,100  Level Cleveland Center
10:57AM 42.1014 -77.4739 264° West 117 135 4,100  Level Cleveland Center
10:58AM 42.0964 -77.5161 261° West 117 135 4,100  Level Cleveland Center
10:59AM 42.0850 -77.5586 250° West 122 140 4,100  Level Cleveland Center
11:00AM 42.0797 -77.6008 260° West 122 140 4,100  Level Cleveland Center
11:01AM 42.0808 -77.6456 272° West 122 140 4,100  Level Cleveland Center
11:02AM 42.0842 -77.6872 276° West 122 140 4,100  Level Cleveland Center
11:03AM 42.0914 -77.7319 282° West 122 140 4,100  Level Cleveland Center
11:04AM 42.0925 -77.7764 272° West 122 140 4,100  Level Cleveland Center
11:05AM 42.0894 -77.8186 264° West 122 140 4,100  Level Cleveland Center
11:06AM 42.0903 -77.8578 272° West 122 140 4,100  Level Cleveland Center
11:07AM 42.0914 -77.9025 272° West 122 140 4,100  Level Cleveland Center
11:08AM 42.0944 -77.9444 276° West 122 140 4,100  Level Cleveland Center
11:09AM 42.0911 -77.9864 264° West 122 140 4,100  Level Cleveland Center
11:10AM 42.0858 -78.0258 260° West 122 140 4,100  Level Cleveland Center
11:11AM 42.0764 -78.0653 252° West 122 140 4,100  Level Cleveland Center
11:12AM 42.0644 -78.1022 246° West 122 140 4,100  Level Cleveland Center
11:13AM 42.0572 -78.1444 257° West 122 140 4,100  Level Cleveland Center
11:14AM 42.0475 -78.1811 250° West 117 135 4,100  Level Cleveland Center
11:15AM 42.0358 -78.2181 247° West 117 135 4,100  Level Cleveland Center
11:16AM 42.0261 -78.2575 252° West 112 129 4,100  Level Cleveland Center
11:17AM 42.0164 -78.2969 252° West 112 129 4,100  Level Cleveland Center
11:19AM 41.9972 -78.3786 252° West 112 129 4,100  Level Cleveland Center
11:20AM 41.9875 -78.4181 252° West 112 129 4,100  Level Cleveland Center
11:21AM 41.9758 -78.4575 248° West 112 129 4,100  Level Cleveland Center
11:22AM 41.9661 -78.4969 252° West 112 129 4,100  Level Cleveland Center
11:23AM 41.9564 -78.5392 253° West 117 135 4,100  Level Cleveland Center
11:24AM 41.9447 -78.5786 248° West 117 135 4,100  Level Cleveland Center
11:25AM 41.9369 -78.6181 255° West 117 135 4,100  Level Cleveland Center
11:26AM 41.9253 -78.6603 250° West 117 135 4,100  Level Cleveland Center
11:27AM 41.9133 -78.7025 249° West 117 135 4,200  Climbing Cleveland Center
11:28AM 41.8931 -78.7450 237° Southwest 117 135 4,200  Level Cleveland Center
11:29AM 41.8728 -78.7789 231° Southwest 122 140 4,200  Level Cleveland Center
11:30AM 41.8547 -78.8186 239° Southwest 127 146 4,200  Level Cleveland Center
11:31AM 41.8408 -78.8581 245° Southwest 122 140 4,200  Level Cleveland Center
11:32AM 41.8267 -78.8972 244° Southwest 122 140 4,200  Level Cleveland Center
11:33AM 41.8128 -78.9367 245° Southwest 122 140 4,200  Level Cleveland Center
11:34AM 41.7986 -78.9789 246° West 122 140 4,200  Level Cleveland Center
11:35AM 41.7889 -79.0208 253° West 122 140 4,200  Level Cleveland Center
11:36AM 41.7789 -79.0628 252° West 122 140 4,200  Level Cleveland Center
11:37AM 41.7750 -79.0797 253° West 122 140 4,200 480 Level Cleveland Center
11:38AM 41.7750 -79.0797 270° West 122 140 5,200 420 Climbing Cleveland Center
11:39AM 41.7642 -79.2025 263° West 122 140 5,100  Descending Cleveland Center
11:40AM 41.7522 -79.2472 250° West 127 146 5,200  Climbing Cleveland Center
11:41AM 41.7422 -79.2864 251° West 127 146 5,200  Level Cleveland Center
11:42AM 41.7322 -79.3339 254° West 127 146 5,200  Level Cleveland Center
11:43AM 41.7222 -79.3758 252° West 127 146 5,200  Level Cleveland Center
11:44AM 41.7081 -79.4206 247° West 127 146 5,200  Level Cleveland Center
11:45AM 41.6833 -79.4517 223° Southwest 132 152 5,200  Level Cleveland Center
11:46AM 41.6650 -79.4908 238° Southwest 132 152 5,200  Level Cleveland Center
11:47AM 41.6425 -79.5300 232° Southwest 132 152 5,200  Level Cleveland Center
11:48AM 41.6178 -79.5667 228° Southwest 132 152 5,200  Level Cleveland Center
11:49AM 41.5953 -79.6058 232° Southwest 132 152 5,200  Level Cleveland Center
11:50AM 41.5725 -79.6422 230° Southwest 132 152 5,200  Level Cleveland Center
11:51AM 41.5458 -79.6786 226° Southwest 132 152 5,200  Level Cleveland Center
11:52AM 41.5169 -79.7097 219° Southwest 137 158 5,200  Level Cleveland Center
11:53AM 41.5025 -79.7514 245° Southwest 137 158 5,200 -300 Level Cleveland Center
11:54AM 41.4778 -79.7878 228° Southwest 137 158 4,700 -600 Descending Cleveland Center
11:55AM 41.4550 -79.8267 232° Southwest 137 158 4,100 -360 Descending Cleveland Center
11:56AM 41.4325 -79.8631 230° Southwest 132 152 4,000 -60 Descending Cleveland Center
11:57AM 41.4161 -79.9047 242° Southwest 132 152 4,000  Level Cleveland Center
11:58AM 41.3953 -79.9411 233° Southwest 132 152 4,000  Level Cleveland Center
11:59AM 41.3769 -79.9828 240° Southwest 127 146 4,000  Level Cleveland Center
12:01PM 41.3388 -80.0411 239° Southwest  Level FlightAware Approximate
12:08PM 41.2199 -80.3038 240° Southwest  Level FlightAware Approximate
12:09PM 41.2036 -80.3418 240° Southwest  Level FlightAware Approximate
12:10PM 41.1873 -80.3798 240° Southwest  Level FlightAware Approximate
12:11PM 41.1710 -80.4178 240° Southwest  Level FlightAware Approximate
12:12PM 41.1547 -80.4558 240° Southwest  Level FlightAware Approximate
12:13PM 41.1344 -80.4901 229° Southwest  Level FlightAware Approximate
12:14PM 41.1167 -80.5248 270° West  Level FlightAware Approximate
12:15PM 41.1333 -80.5464 270° West  Level FlightAware Approximate
12:16PM 41.1608 -80.5608 323° Northwest  Level FlightAware Approximate
12:17PM 41.1907 -80.5787 339° North  Level FlightAware Approximate
12:18PM 41.2152 -80.6062 312° West  Level FlightAware Approximate
12:19PM 41.2364 -80.6395 304° West  Level FlightAware Approximate
12:20PM 41.2500 -80.6667 304° West  Level FlightAware Approximate